KPZQ METAR Reports


Rogers City, Presque Isle County Airport, MI, United States (KPZQ) 45-24-25N 083-48-46W
Jul 12, 2024 - 04:35 PM EDT / 2024.07.12 2035 UTC
Wind: from the E (100 degrees) at 6 MPH (5 KT):0
Visibility: 10 mile(s):0
Sky conditions: partly cloudy
Temperature: 77.2 F (25.1 C)
Dew Point: 63.5 F (17.5 C)
Relative Humidity: 62%
Pressure (altimeter): 30.12 in. Hg (1019 hPa)
ob: KPZQ 122035Z AUTO 10005KT 10SM SCT075 25/18 A3012 RMK AO2 T02510175
cycle: 20

 

Rogers City METAR Meteogram

Weather Chart

Nearby METAR Reports

KPZQ - Rogers City, Michigan, USA
Distance from station: SSW 1mi, 2km
Updated: Fri, 12-Jul-2024 4:35pm EDT
Partly cloudy
Partly cloudy
 Wind from E
Wind: E 6 mph, 9 km/h
Temperature: 77°F, 25°C
Dew Point: 64°F, 18°C
Humidity: 65%
Barometer: 30.12 inHg, 1020 hPa
Clouds: Partly cloudy
Visibility: 10 miles, 16 km
Cloud details: Partly cloudy 7500 ft
2024/07/12 20:35 KPZQ 122035Z AUTO 10005KT 10SM SCT075 25/18 A3012 RMK AO2 T02510175
KAPN - Alpena, Michigan, USA
Distance from station: SSE 27mi, 43km
Updated: Fri, 12-Jul-2024 3:54pm EDT
NOT Current
Clear
Clear
 Wind from varies
Wind: varies 7 mph, 11 km/h
Temperature: 82°F, 28°C
Heat Index: 81°F, 27°C
Dew Point: 55°F, 13°C
Humidity: 40%
Barometer: 30.12 inHg, 1020 hPa
Clouds: Clear
Visibility: 10 miles, 16 km
2024/07/12 19:54 KAPN 121954Z AUTO VRB06KT 10SM CLR 28/13 A3012 RMK AO2 SLP197 T02780133
 
KSLH - Cheboygan, Michigan, USA
Distance from station: WNW 38mi, 61km
Updated: Fri, 12-Jul-2024 4:35pm EDT
Mostly cloudy
Mostly cloudy
 Wind from N
Wind: N 6 mph, 9 km/h
Temperature: 75°F, 24°C
Dew Point: 63°F, 17°C
Humidity: 65%
Barometer: 30.11 inHg, 1019.6 hPa
Clouds: Mostly cloudy
Visibility: 10 miles, 16 km
Cloud details: Mostly cloudy 5000 ft
Mostly cloudy 7000 ft
2024/07/12 20:35 KSLH 122035Z AUTO 01005KT 10SM BKN050 BKN070 24/17 A3011 RMK AO2
KDRM - Drummond Is, Michigan, USA
Distance from station: N 40mi, 65km
Updated: Fri, 12-Jul-2024 4:35pm EDT
Clear
Clear
 Wind from SE
Wind: SE 3 mph, 6 km/h
Temperature: 79°F, 26°C
Dew Point: 61°F, 16°C
Humidity: 54%
Barometer: 30.12 inHg, 1020 hPa
Clouds: Clear
Visibility: 10 miles, 16 km
2024/07/12 20:35 KDRM 122035Z AUTO 14003KT 10SM CLR 26/16 A3012 RMK AO2 T02580156
 
KPLN - Pellston, Michigan, USA
Distance from station: WNW 49mi, 79km
Updated: Fri, 12-Jul-2024 3:54pm EDT
NOT Current
Few Clouds
Few Clouds
 Wind from WSW
Wind: WSW 10 mph, 17 km/h, Gust: 17 mph, 28 km/h
Temperature: 82°F, 28°C
Heat Index: 83°F, 28°C
Dew Point: 63°F, 17°C
Humidity: 51%
Barometer: 30.11 inHg, 1019.6 hPa
Clouds: Few Clouds
Visibility: 10 miles, 16 km
Cloud details: Few Clouds 4400 ft
2024/07/12 19:54 KPLN 121954Z AUTO 25009G15KT 10SM FEW044 28/17 A3011 RMK AO2 SLP194 T02830167
KMCD - Mackinac Island, Michigan, USA
Distance from station: NW 50mi, 80km
Updated: Fri, 12-Jul-2024 4:35pm EDT
Clear
Clear
 Wind from WSW
Wind: WSW 7 mph, 11 km/h
Temperature: 79°F, 26°C
Dew Point: 59°F, 15°C
Humidity: 51%
Barometer: 30.12 inHg, 1020 hPa
Clouds: Clear
Visibility: 10 miles, 16 km
2024/07/12 20:35 KMCD 122035Z AUTO 25006KT 10SM CLR 26/15 A3012 RMK AO2 T02550148